Date,TemperatureHighF,TemperatureAvgF,TemperatureLowF,DewpointHighF,DewpointAvgF,DewpointLowF,HumidityHigh,HumidityAvg,HumidityLow,PressureMaxIn,PressureMinIn,WindSpeedMaxMPH,WindSpeedAvgMPH,GustSpeedMaxMPH,PrecipitationSumIn
2013-8-1,80.4,72.1,67.6,74.3,69.0,65.9,95,90,79,30.07,29.99,7,0,7,1.07
2013-8-2,79.9,71.9,64.6,72.8,68.0,62.8,95,88,76,30.12,30.03,2,0,2,0.00
2013-8-3,81.9,72.9,66.0,72.4,68.1,63.6,95,85,68,30.12,30.06,2,0,2,0.00
2013-8-4,83.1,72.5,65.5,72.4,66.8,62.9,94,83,66,30.13,30.06,12,1,12,0.00
2013-8-5,80.1,71.0,63.5,71.8,66.1,60.7,92,85,73,30.15,30.05,4,0,4,0.03
2013-8-6,80.8,73.0,68.7,73.9,69.2,66.0,94,88,73,30.13,30.03,4,0,4,0.03
2013-8-7,73.2,70.8,68.5,71.7,69.1,67.1,96,94,91,30.14,30.08,0,0,0,1.80
2013-8-8,80.2,72.5,67.1,75.1,69.7,65.6,96,91,83,30.14,30.09,6,0,2,0.00
2013-8-9,81.7,73.6,67.8,74.6,70.4,66.0,96,90,78,30.18,30.10,6,0,6,0.03
2013-8-10,82.0,73.0,68.4,75.8,70.3,66.6,96,91,80,30.21,30.14,10,0,10,0.24
2013-8-11,84.4,72.9,67.1,75.8,69.8,65.3,96,90,73,30.23,30.15,10,0,10,1.66
2013-8-12,83.3,73.5,68.2,76.0,69.9,66.4,95,89,75,30.20,30.06,8,0,8,0.00
2013-8-13,81.9,73.0,68.5,74.9,69.5,65.9,96,89,73,30.08,29.92,8,1,8,0.18
2013-8-14,76.1,69.4,64.8,68.6,64.4,62.0,94,85,68,30.14,29.99,8,0,8,0.03
2013-8-15,66.9,64.5,61.3,62.5,59.9,57.6,92,85,78,30.20,30.12,17,1,17,0.00
2013-8-16,70.0,64.0,59.7,62.4,59.5,56.8,92,86,75,30.21,30.13,5,0,5,0.00
2013-8-17,67.3,64.0,61.5,61.6,60.1,57.9,92,87,80,30.23,30.17,7,1,7,0.15
2013-8-18,75.0,67.5,63.3,70.2,64.7,61.3,94,91,81,30.27,30.18,7,0,7,0.21
2013-8-19,72.3,68.0,64.9,69.4,65.9,63.3,95,93,89,30.26,30.15,5,0,5,1.77
2013-8-20,77.2,69.3,64.2,72.1,66.7,62.6,96,92,83,30.27,30.18,0,0,0,0.00
2013-8-21,73.8,69.1,66.2,71.0,67.2,64.1,96,94,90,30.31,30.20,0,0,0,0.21
2013-8-22,81.7,71.8,65.5,74.0,68.1,63.7,96,89,75,30.25,30.13,0,0,0,0.00
2013-8-23,82.8,72.0,65.1,72.9,67.5,63.2,95,86,67,30.16,30.06,6,0,6,0.00
2013-8-24,78.1,69.6,61.5,67.0,63.7,57.3,93,82,62,30.36,30.16,9,2,9,0.00
2013-8-25,76.6,65.4,55.2,64.2,58.7,52.0,91,80,61,30.44,30.32,7,1,7,0.00
2013-8-26,78.6,66.8,57.0,67.1,60.4,53.8,91,81,61,30.39,30.20,9,1,9,0.00
2013-8-27,82.9,69.6,60.1,70.4,63.6,57.1,92,82,62,30.24,30.10,10,1,10,0.00
2013-8-28,83.8,72.6,64.6,73.6,67.3,61.6,93,84,69,30.15,30.04,10,1,10,0.00
2013-8-29,84.7,73.5,65.1,75.4,68.5,62.7,94,85,68,30.09,30.01,8,0,8,0.00
2013-8-30,77.5,72.3,70.5,73.4,69.7,67.8,95,91,85,30.14,30.04,4,0,4,0.12
2013-8-31,84.0,72.3,66.6,74.6,69.0,64.5,95,90,71,30.06,29.98,10,0,10,0.40